sensor_id;sensor_type;location;lat;lon;timestamp;P1;durP1;ratioP1;P2;durP2;ratioP2
48403;SDS011;34202;52.536;6.042;2023-02-28T00:00:32;3.20;;;2.20;;
48403;SDS011;34202;52.536;6.042;2023-02-28T00:05:33;6.40;;;2.90;;
48403;SDS011;34202;52.536;6.042;2023-02-28T00:10:34;4.00;;;2.20;;
48403;SDS011;34202;52.536;6.042;2023-02-28T00:15:35;3.50;;;2.00;;
48403;SDS011;34202;52.536;6.042;2023-02-28T00:20:35;4.30;;;2.60;;
48403;SDS011;34202;52.536;6.042;2023-02-28T00:25:36;7.10;;;2.50;;
48403;SDS011;34202;52.536;6.042;2023-02-28T00:30:36;5.40;;;3.00;;
48403;SDS011;34202;52.536;6.042;2023-02-28T00:35:36;8.10;;;2.40;;
48403;SDS011;34202;52.536;6.042;2023-02-28T00:40:37;4.60;;;2.20;;
48403;SDS011;34202;52.536;6.042;2023-02-28T00:45:37;7.00;;;2.60;;
48403;SDS011;34202;52.536;6.042;2023-02-28T00:50:38;7.60;;;2.80;;
48403;SDS011;34202;52.536;6.042;2023-02-28T00:55:38;8.20;;;3.00;;
48403;SDS011;34202;52.536;6.042;2023-02-28T01:00:38;7.10;;;2.80;;
48403;SDS011;34202;52.536;6.042;2023-02-28T01:05:39;6.20;;;2.60;;
48403;SDS011;34202;52.536;6.042;2023-02-28T01:10:41;12.70;;;3.10;;
48403;SDS011;34202;52.536;6.042;2023-02-28T01:15:43;6.20;;;2.90;;
48403;SDS011;34202;52.536;6.042;2023-02-28T01:20:48;5.50;;;2.80;;
48403;SDS011;34202;52.536;6.042;2023-02-28T01:25:51;5.80;;;2.70;;
48403;SDS011;34202;52.536;6.042;2023-02-28T01:30:53;9.10;;;3.50;;
48403;SDS011;34202;52.536;6.042;2023-02-28T01:36:00;5.10;;;3.20;;
48403;SDS011;34202;52.536;6.042;2023-02-28T01:41:02;5.10;;;2.70;;
48403;SDS011;34202;52.536;6.042;2023-02-28T01:46:03;6.90;;;3.60;;
48403;SDS011;34202;52.536;6.042;2023-02-28T01:51:11;4.10;;;3.10;;
48403;SDS011;34202;52.536;6.042;2023-02-28T01:56:18;5.50;;;2.90;;
48403;SDS011;34202;52.536;6.042;2023-02-28T02:01:24;11.70;;;4.30;;
48403;SDS011;34202;52.536;6.042;2023-02-28T02:06:40;8.90;;;3.60;;
48403;SDS011;34202;52.536;6.042;2023-02-28T02:11:45;4.70;;;3.20;;
48403;SDS011;34202;52.536;6.042;2023-02-28T02:16:52;13.00;;;4.40;;
48403;SDS011;34202;52.536;6.042;2023-02-28T02:43:48;8.60;;;3.10;;
48403;SDS011;34202;52.536;6.042;2023-02-28T02:48:54;8.10;;;4.10;;
48403;SDS011;34202;52.536;6.042;2023-02-28T02:54:17;8.70;;;5.00;;
48403;SDS011;34202;52.536;6.042;2023-02-28T02:59:23;7.70;;;4.50;;
48403;SDS011;34202;52.536;6.042;2023-02-28T03:04:25;8.40;;;3.70;;
48403;SDS011;34202;52.536;6.042;2023-02-28T03:09:32;17.70;;;5.80;;
48403;SDS011;34202;52.536;6.042;2023-02-28T03:14:43;11.80;;;7.00;;
48403;SDS011;34202;52.536;6.042;2023-02-28T03:30:26;12.50;;;8.20;;
48403;SDS011;34202;52.536;6.042;2023-02-28T03:35:34;13.00;;;5.90;;
48403;SDS011;34202;52.536;6.042;2023-02-28T03:40:39;12.50;;;8.80;;
48403;SDS011;34202;52.536;6.042;2023-02-28T03:45:45;16.00;;;7.70;;
48403;SDS011;34202;52.536;6.042;2023-02-28T03:50:49;9.60;;;7.00;;
48403;SDS011;34202;52.536;6.042;2023-02-28T03:55:56;19.60;;;10.20;;
48403;SDS011;34202;52.536;6.042;2023-02-28T04:01:08;13.70;;;9.60;;
48403;SDS011;34202;52.536;6.042;2023-02-28T04:06:14;11.80;;;7.50;;
48403;SDS011;34202;52.536;6.042;2023-02-28T04:11:22;19.40;;;10.80;;
48403;SDS011;34202;52.536;6.042;2023-02-28T04:16:26;14.00;;;9.10;;
48403;SDS011;34202;52.536;6.042;2023-02-28T04:21:28;14.50;;;10.30;;
48403;SDS011;34202;52.536;6.042;2023-02-28T04:26:30;16.90;;;9.00;;
48403;SDS011;34202;52.536;6.042;2023-02-28T04:31:31;17.60;;;9.80;;
48403;SDS011;34202;52.536;6.042;2023-02-28T04:36:32;13.50;;;8.70;;
48403;SDS011;34202;52.536;6.042;2023-02-28T04:41:32;11.80;;;6.80;;
48403;SDS011;34202;52.536;6.042;2023-02-28T04:46:33;11.00;;;6.10;;
48403;SDS011;34202;52.536;6.042;2023-02-28T04:51:33;8.20;;;4.70;;
48403;SDS011;34202;52.536;6.042;2023-02-28T04:56:33;7.00;;;4.30;;
48403;SDS011;34202;52.536;6.042;2023-02-28T05:01:34;9.80;;;5.00;;
48403;SDS011;34202;52.536;6.042;2023-02-28T05:06:36;7.30;;;4.80;;
48403;SDS011;34202;52.536;6.042;2023-02-28T05:11:36;6.90;;;4.40;;
48403;SDS011;34202;52.536;6.042;2023-02-28T05:16:38;6.70;;;3.70;;
48403;SDS011;34202;52.536;6.042;2023-02-28T05:21:52;8.00;;;3.40;;
48403;SDS011;34202;52.536;6.042;2023-02-28T05:26:54;4.30;;;2.80;;
48403;SDS011;34202;52.536;6.042;2023-02-28T05:31:55;5.80;;;3.00;;
48403;SDS011;34202;52.536;6.042;2023-02-28T05:36:55;3.60;;;2.90;;
48403;SDS011;34202;52.536;6.042;2023-02-28T05:41:56;7.10;;;3.10;;
48403;SDS011;34202;52.536;6.042;2023-02-28T05:46:56;4.30;;;2.60;;
48403;SDS011;34202;52.536;6.042;2023-02-28T05:51:57;6.10;;;1.80;;
48403;SDS011;34202;52.536;6.042;2023-02-28T05:56:57;3.70;;;2.10;;
48403;SDS011;34202;52.536;6.042;2023-02-28T06:01:57;3.90;;;2.10;;
48403;SDS011;34202;52.536;6.042;2023-02-28T06:06:58;4.20;;;2.40;;
48403;SDS011;34202;52.536;6.042;2023-02-28T06:11:59;4.10;;;2.60;;
48403;SDS011;34202;52.536;6.042;2023-02-28T06:17:00;6.50;;;2.50;;
48403;SDS011;34202;52.536;6.042;2023-02-28T06:22:01;5.70;;;2.60;;
48403;SDS011;34202;52.536;6.042;2023-02-28T06:27:01;5.60;;;3.20;;
48403;SDS011;34202;52.536;6.042;2023-02-28T06:32:05;6.00;;;3.00;;
48403;SDS011;34202;52.536;6.042;2023-02-28T06:37:06;3.70;;;2.90;;
48403;SDS011;34202;52.536;6.042;2023-02-28T06:42:06;3.50;;;2.60;;
48403;SDS011;34202;52.536;6.042;2023-02-28T06:47:06;5.50;;;2.70;;
48403;SDS011;34202;52.536;6.042;2023-02-28T06:52:07;6.60;;;3.10;;
48403;SDS011;34202;52.536;6.042;2023-02-28T06:57:08;4.30;;;3.30;;
48403;SDS011;34202;52.536;6.042;2023-02-28T07:02:09;10.00;;;4.10;;
48403;SDS011;34202;52.536;6.042;2023-02-28T07:07:09;3.90;;;3.20;;
48403;SDS011;34202;52.536;6.042;2023-02-28T07:12:10;4.80;;;3.30;;
48403;SDS011;34202;52.536;6.042;2023-02-28T07:17:10;4.10;;;3.70;;
48403;SDS011;34202;52.536;6.042;2023-02-28T07:22:12;3.90;;;2.80;;
48403;SDS011;34202;52.536;6.042;2023-02-28T07:27:12;4.30;;;2.80;;
48403;SDS011;34202;52.536;6.042;2023-02-28T07:32:23;4.90;;;3.30;;
48403;SDS011;34202;52.536;6.042;2023-02-28T07:37:23;4.70;;;3.30;;
48403;SDS011;34202;52.536;6.042;2023-02-28T07:42:24;4.70;;;3.10;;
48403;SDS011;34202;52.536;6.042;2023-02-28T07:47:24;6.50;;;3.40;;
48403;SDS011;34202;52.536;6.042;2023-02-28T07:52:25;4.60;;;2.90;;
48403;SDS011;34202;52.536;6.042;2023-02-28T07:57:25;9.60;;;2.90;;
48403;SDS011;34202;52.536;6.042;2023-02-28T08:02:26;4.40;;;2.90;;
48403;SDS011;34202;52.536;6.042;2023-02-28T08:07:26;4.40;;;3.00;;
48403;SDS011;34202;52.536;6.042;2023-02-28T08:12:27;4.20;;;3.50;;
48403;SDS011;34202;52.536;6.042;2023-02-28T08:17:27;6.00;;;3.10;;
48403;SDS011;34202;52.536;6.042;2023-02-28T08:22:27;7.10;;;3.40;;
48403;SDS011;34202;52.536;6.042;2023-02-28T08:27:28;5.00;;;3.60;;
48403;SDS011;34202;52.536;6.042;2023-02-28T08:32:28;4.90;;;3.40;;
48403;SDS011;34202;52.536;6.042;2023-02-28T08:37:29;5.40;;;4.50;;
48403;SDS011;34202;52.536;6.042;2023-02-28T08:42:29;5.70;;;4.00;;
48403;SDS011;34202;52.536;6.042;2023-02-28T08:47:30;9.90;;;4.30;;
48403;SDS011;34202;52.536;6.042;2023-02-28T08:52:30;5.00;;;3.90;;
48403;SDS011;34202;52.536;6.042;2023-02-28T08:57:31;7.20;;;4.00;;
48403;SDS011;34202;52.536;6.042;2023-02-28T09:02:31;5.00;;;3.60;;
48403;SDS011;34202;52.536;6.042;2023-02-28T09:07:32;6.20;;;3.60;;
48403;SDS011;34202;52.536;6.042;2023-02-28T09:12:33;4.00;;;2.70;;
48403;SDS011;34202;52.536;6.042;2023-02-28T09:17:35;4.80;;;2.30;;
48403;SDS011;34202;52.536;6.042;2023-02-28T09:22:35;3.40;;;2.40;;
48403;SDS011;34202;52.536;6.042;2023-02-28T09:27:36;5.00;;;2.80;;
48403;SDS011;34202;52.536;6.042;2023-02-28T09:32:37;3.10;;;2.50;;
48403;SDS011;34202;52.536;6.042;2023-02-28T09:37:37;3.30;;;2.60;;
48403;SDS011;34202;52.536;6.042;2023-02-28T09:42:38;3.20;;;2.60;;
48403;SDS011;34202;52.536;6.042;2023-02-28T09:47:40;5.50;;;2.50;;
48403;SDS011;34202;52.536;6.042;2023-02-28T09:52:46;3.40;;;2.00;;
48403;SDS011;34202;52.536;6.042;2023-02-28T09:57:50;1.70;;;1.30;;
48403;SDS011;34202;52.536;6.042;2023-02-28T10:08:42;1.20;;;1.10;;
48403;SDS011;34202;52.536;6.042;2023-02-28T10:19:18;1.80;;;0.90;;
48403;SDS011;34202;52.536;6.042;2023-02-28T10:24:39;1.00;;;0.90;;
48403;SDS011;34202;52.536;6.042;2023-02-28T10:29:43;3.40;;;1.40;;
48403;SDS011;34202;52.536;6.042;2023-02-28T10:34:51;1.60;;;1.20;;
48403;SDS011;34202;52.536;6.042;2023-02-28T10:39:56;3.80;;;1.30;;
48403;SDS011;34202;52.536;6.042;2023-02-28T10:56:05;3.30;;;1.70;;
48403;SDS011;34202;52.536;6.042;2023-02-28T11:01:12;3.80;;;1.10;;
48403;SDS011;34202;52.536;6.042;2023-02-28T11:06:18;2.70;;;1.20;;
48403;SDS011;34202;52.536;6.042;2023-02-28T11:11:25;1.80;;;1.40;;
48403;SDS011;34202;52.536;6.042;2023-02-28T11:16:31;2.90;;;1.20;;
48403;SDS011;34202;52.536;6.042;2023-02-28T11:21:36;4.00;;;1.40;;
48403;SDS011;34202;52.536;6.042;2023-02-28T11:26:42;2.60;;;1.10;;
48403;SDS011;34202;52.536;6.042;2023-02-28T11:32:00;1.10;;;0.90;;
48403;SDS011;34202;52.536;6.042;2023-02-28T11:37:05;1.10;;;0.90;;
48403;SDS011;34202;52.536;6.042;2023-02-28T11:47:48;1.50;;;1.10;;
48403;SDS011;34202;52.536;6.042;2023-02-28T11:53:00;1.60;;;1.50;;
48403;SDS011;34202;52.536;6.042;2023-02-28T12:03:31;1.60;;;1.10;;
48403;SDS011;34202;52.536;6.042;2023-02-28T12:14:19;1.30;;;1.20;;
48403;SDS011;34202;52.536;6.042;2023-02-28T12:30:27;3.20;;;1.20;;
48403;SDS011;34202;52.536;6.042;2023-02-28T12:40:56;1.10;;;1.00;;
48403;SDS011;34202;52.536;6.042;2023-02-28T12:51:08;2.20;;;1.40;;
48403;SDS011;34202;52.536;6.042;2023-02-28T13:12:21;1.50;;;1.30;;
48403;SDS011;34202;52.536;6.042;2023-02-28T13:17:23;2.20;;;1.30;;
48403;SDS011;34202;52.536;6.042;2023-02-28T13:27:36;1.10;;;1.00;;
48403;SDS011;34202;52.536;6.042;2023-02-28T13:32:40;1.90;;;1.10;;
48403;SDS011;34202;52.536;6.042;2023-02-28T13:37:44;2.00;;;1.20;;
48403;SDS011;34202;52.536;6.042;2023-02-28T13:42:49;1.70;;;1.20;;
48403;SDS011;34202;52.536;6.042;2023-02-28T13:47:54;2.30;;;1.60;;
48403;SDS011;34202;52.536;6.042;2023-02-28T14:14:54;1.00;;;0.90;;
48403;SDS011;34202;52.536;6.042;2023-02-28T14:19:47;4.40;;;1.00;;
48403;SDS011;34202;52.536;6.042;2023-02-28T14:30:11;1.30;;;1.20;;
48403;SDS011;34202;52.536;6.042;2023-02-28T14:40:28;2.80;;;1.60;;
48403;SDS011;34202;52.536;6.042;2023-02-28T14:45:33;2.80;;;1.50;;
48403;SDS011;34202;52.536;6.042;2023-02-28T14:50:36;1.70;;;1.30;;
48403;SDS011;34202;52.536;6.042;2023-02-28T14:55:37;2.20;;;1.20;;
48403;SDS011;34202;52.536;6.042;2023-02-28T15:00:48;5.30;;;1.70;;
48403;SDS011;34202;52.536;6.042;2023-02-28T15:05:54;3.40;;;2.30;;
48403;SDS011;34202;52.536;6.042;2023-02-28T15:11:16;2.40;;;1.60;;
48403;SDS011;34202;52.536;6.042;2023-02-28T15:21:39;3.80;;;1.50;;
48403;SDS011;34202;52.536;6.042;2023-02-28T15:26:45;3.50;;;1.50;;
48403;SDS011;34202;52.536;6.042;2023-02-28T15:31:56;3.10;;;1.50;;
48403;SDS011;34202;52.536;6.042;2023-02-28T15:36:57;3.10;;;1.50;;
48403;SDS011;34202;52.536;6.042;2023-02-28T15:42:16;4.50;;;1.70;;
48403;SDS011;34202;52.536;6.042;2023-02-28T15:47:26;1.50;;;1.40;;
48403;SDS011;34202;52.536;6.042;2023-02-28T15:52:39;3.90;;;1.30;;
48403;SDS011;34202;52.536;6.042;2023-02-28T15:57:42;3.00;;;1.40;;
48403;SDS011;34202;52.536;6.042;2023-02-28T16:02:46;2.20;;;1.40;;
48403;SDS011;34202;52.536;6.042;2023-02-28T16:07:47;5.10;;;1.70;;
48403;SDS011;34202;52.536;6.042;2023-02-28T16:12:48;2.70;;;1.80;;
48403;SDS011;34202;52.536;6.042;2023-02-28T16:17:49;2.60;;;1.80;;
48403;SDS011;34202;52.536;6.042;2023-02-28T16:22:49;5.60;;;2.20;;
48403;SDS011;34202;52.536;6.042;2023-02-28T16:27:51;2.10;;;1.50;;
48403;SDS011;34202;52.536;6.042;2023-02-28T16:32:54;3.50;;;2.50;;
48403;SDS011;34202;52.536;6.042;2023-02-28T16:37:55;3.70;;;1.60;;
48403;SDS011;34202;52.536;6.042;2023-02-28T16:42:57;11.20;;;2.50;;
48403;SDS011;34202;52.536;6.042;2023-02-28T16:48:00;3.90;;;2.40;;
48403;SDS011;34202;52.536;6.042;2023-02-28T16:53:00;2.90;;;2.20;;
48403;SDS011;34202;52.536;6.042;2023-02-28T16:58:01;2.90;;;2.30;;
48403;SDS011;34202;52.536;6.042;2023-02-28T17:03:02;5.30;;;2.30;;
48403;SDS011;34202;52.536;6.042;2023-02-28T17:08:03;2.40;;;2.00;;
48403;SDS011;34202;52.536;6.042;2023-02-28T17:13:04;4.70;;;2.20;;
48403;SDS011;34202;52.536;6.042;2023-02-28T17:18:08;5.00;;;2.00;;
48403;SDS011;34202;52.536;6.042;2023-02-28T17:23:15;5.50;;;2.10;;
48403;SDS011;34202;52.536;6.042;2023-02-28T17:28:15;3.70;;;2.30;;
48403;SDS011;34202;52.536;6.042;2023-02-28T17:33:16;2.40;;;2.10;;
48403;SDS011;34202;52.536;6.042;2023-02-28T17:38:17;4.40;;;2.50;;
48403;SDS011;34202;52.536;6.042;2023-02-28T17:43:19;3.80;;;2.00;;
48403;SDS011;34202;52.536;6.042;2023-02-28T17:48:19;2.70;;;2.00;;
48403;SDS011;34202;52.536;6.042;2023-02-28T17:53:19;4.50;;;2.60;;
48403;SDS011;34202;52.536;6.042;2023-02-28T17:58:22;11.20;;;3.90;;
48403;SDS011;34202;52.536;6.042;2023-02-28T18:03:23;3.30;;;2.50;;
48403;SDS011;34202;52.536;6.042;2023-02-28T18:08:25;3.90;;;2.60;;
48403;SDS011;34202;52.536;6.042;2023-02-28T18:13:25;7.50;;;2.80;;
48403;SDS011;34202;52.536;6.042;2023-02-28T18:18:27;7.30;;;3.00;;
48403;SDS011;34202;52.536;6.042;2023-02-28T18:23:28;8.60;;;2.90;;
48403;SDS011;34202;52.536;6.042;2023-02-28T18:28:28;4.20;;;2.60;;
48403;SDS011;34202;52.536;6.042;2023-02-28T18:33:28;5.40;;;3.00;;
48403;SDS011;34202;52.536;6.042;2023-02-28T18:38:29;3.60;;;2.90;;
48403;SDS011;34202;52.536;6.042;2023-02-28T18:43:30;6.40;;;4.40;;
48403;SDS011;34202;52.536;6.042;2023-02-28T18:48:32;3.90;;;3.50;;
48403;SDS011;34202;52.536;6.042;2023-02-28T18:53:33;9.90;;;4.70;;
48403;SDS011;34202;52.536;6.042;2023-02-28T18:58:35;9.50;;;4.00;;
48403;SDS011;34202;52.536;6.042;2023-02-28T19:03:35;7.80;;;4.70;;
48403;SDS011;34202;52.536;6.042;2023-02-28T19:08:36;8.60;;;5.10;;
48403;SDS011;34202;52.536;6.042;2023-02-28T19:13:36;14.40;;;5.40;;
48403;SDS011;34202;52.536;6.042;2023-02-28T19:18:37;8.00;;;6.10;;
48403;SDS011;34202;52.536;6.042;2023-02-28T19:23:39;8.10;;;6.00;;
48403;SDS011;34202;52.536;6.042;2023-02-28T19:28:40;7.10;;;5.10;;
48403;SDS011;34202;52.536;6.042;2023-02-28T19:33:41;8.10;;;5.10;;
48403;SDS011;34202;52.536;6.042;2023-02-28T19:38:41;9.00;;;4.80;;
48403;SDS011;34202;52.536;6.042;2023-02-28T19:43:43;5.40;;;4.80;;
48403;SDS011;34202;52.536;6.042;2023-02-28T19:48:44;7.50;;;5.10;;
48403;SDS011;34202;52.536;6.042;2023-02-28T19:53:45;8.00;;;4.70;;
48403;SDS011;34202;52.536;6.042;2023-02-28T19:58:45;7.10;;;5.30;;
48403;SDS011;34202;52.536;6.042;2023-02-28T20:03:46;8.00;;;5.90;;
48403;SDS011;34202;52.536;6.042;2023-02-28T20:08:52;15.00;;;6.80;;
48403;SDS011;34202;52.536;6.042;2023-02-28T20:13:53;20.70;;;11.30;;
48403;SDS011;34202;52.536;6.042;2023-02-28T20:18:56;49.60;;;31.40;;
48403;SDS011;34202;52.536;6.042;2023-02-28T20:23:56;53.80;;;32.30;;
48403;SDS011;34202;52.536;6.042;2023-02-28T20:28:57;37.40;;;25.30;;
48403;SDS011;34202;52.536;6.042;2023-02-28T20:33:57;30.70;;;20.50;;
48403;SDS011;34202;52.536;6.042;2023-02-28T20:38:58;32.10;;;21.80;;
48403;SDS011;34202;52.536;6.042;2023-02-28T20:43:58;34.90;;;21.00;;
48403;SDS011;34202;52.536;6.042;2023-02-28T20:49:00;27.60;;;20.10;;
48403;SDS011;34202;52.536;6.042;2023-02-28T20:54:01;33.20;;;19.30;;
48403;SDS011;34202;52.536;6.042;2023-02-28T20:59:01;36.00;;;20.60;;
48403;SDS011;34202;52.536;6.042;2023-02-28T21:04:03;33.80;;;21.40;;
48403;SDS011;34202;52.536;6.042;2023-02-28T21:09:05;15.80;;;10.50;;
48403;SDS011;34202;52.536;6.042;2023-02-28T21:14:08;20.10;;;11.20;;
48403;SDS011;34202;52.536;6.042;2023-02-28T21:19:13;17.00;;;12.50;;
48403;SDS011;34202;52.536;6.042;2023-02-28T21:24:15;18.30;;;9.40;;
48403;SDS011;34202;52.536;6.042;2023-02-28T21:29:17;11.90;;;9.50;;
48403;SDS011;34202;52.536;6.042;2023-02-28T21:34:18;14.20;;;8.80;;
48403;SDS011;34202;52.536;6.042;2023-02-28T21:39:22;12.50;;;8.40;;
48403;SDS011;34202;52.536;6.042;2023-02-28T21:44:25;20.20;;;9.70;;
48403;SDS011;34202;52.536;6.042;2023-02-28T21:49:27;14.10;;;9.10;;
48403;SDS011;34202;52.536;6.042;2023-02-28T21:54:28;16.60;;;9.60;;
48403;SDS011;34202;52.536;6.042;2023-02-28T21:59:28;14.30;;;10.30;;
48403;SDS011;34202;52.536;6.042;2023-02-28T22:04:28;15.00;;;9.30;;
48403;SDS011;34202;52.536;6.042;2023-02-28T22:09:29;14.70;;;10.50;;
48403;SDS011;34202;52.536;6.042;2023-02-28T22:14:30;11.60;;;9.40;;
48403;SDS011;34202;52.536;6.042;2023-02-28T22:19:30;12.60;;;8.60;;
48403;SDS011;34202;52.536;6.042;2023-02-28T22:24:30;12.40;;;9.50;;
48403;SDS011;34202;52.536;6.042;2023-02-28T22:29:31;15.90;;;11.10;;
48403;SDS011;34202;52.536;6.042;2023-02-28T22:34:31;19.10;;;11.10;;
48403;SDS011;34202;52.536;6.042;2023-02-28T22:39:31;14.50;;;10.00;;
48403;SDS011;34202;52.536;6.042;2023-02-28T22:44:32;13.40;;;8.90;;
48403;SDS011;34202;52.536;6.042;2023-02-28T22:49:32;17.20;;;11.10;;
48403;SDS011;34202;52.536;6.042;2023-02-28T22:54:32;12.10;;;8.60;;
48403;SDS011;34202;52.536;6.042;2023-02-28T22:59:33;20.30;;;10.90;;
48403;SDS011;34202;52.536;6.042;2023-02-28T23:04:34;15.90;;;12.30;;
48403;SDS011;34202;52.536;6.042;2023-02-28T23:09:34;22.00;;;12.90;;
48403;SDS011;34202;52.536;6.042;2023-02-28T23:14:36;14.40;;;10.50;;
48403;SDS011;34202;52.536;6.042;2023-02-28T23:19:36;18.50;;;12.10;;
48403;SDS011;34202;52.536;6.042;2023-02-28T23:24:37;18.50;;;12.00;;
48403;SDS011;34202;52.536;6.042;2023-02-28T23:29:37;16.00;;;12.50;;
48403;SDS011;34202;52.536;6.042;2023-02-28T23:34:38;16.40;;;12.40;;
48403;SDS011;34202;52.536;6.042;2023-02-28T23:39:39;17.70;;;12.20;;
48403;SDS011;34202;52.536;6.042;2023-02-28T23:44:40;15.50;;;11.00;;
48403;SDS011;34202;52.536;6.042;2023-02-28T23:49:40;16.00;;;10.90;;
48403;SDS011;34202;52.536;6.042;2023-02-28T23:54:41;18.60;;;11.70;;
48403;SDS011;34202;52.536;6.042;2023-02-28T23:59:41;17.80;;;12.70;;
